sensor_id;sensor_type;location;lat;lon;timestamp;P1;durP1;ratioP1;P2;durP2;ratioP2
32746;SDS011;19118;50.860;13.662;2024-02-26T00:02:14;32.83;;;16.42;;
32746;SDS011;19118;50.860;13.662;2024-02-26T00:07:15;33.53;;;18.05;;
32746;SDS011;19118;50.860;13.662;2024-02-26T00:12:15;31.92;;;18.15;;
32746;SDS011;19118;50.860;13.662;2024-02-26T00:17:16;32.78;;;19.33;;
32746;SDS011;19118;50.860;13.662;2024-02-26T00:22:16;39.08;;;18.50;;
32746;SDS011;19118;50.860;13.662;2024-02-26T00:27:16;37.80;;;19.47;;
32746;SDS011;19118;50.860;13.662;2024-02-26T00:32:16;32.88;;;18.48;;
32746;SDS011;19118;50.860;13.662;2024-02-26T00:37:17;32.72;;;17.05;;
32746;SDS011;19118;50.860;13.662;2024-02-26T00:42:17;36.37;;;18.00;;
32746;SDS011;19118;50.860;13.662;2024-02-26T00:47:17;37.57;;;18.73;;
32746;SDS011;19118;50.860;13.662;2024-02-26T00:52:18;37.03;;;18.43;;
32746;SDS011;19118;50.860;13.662;2024-02-26T00:57:18;49.05;;;20.15;;
32746;SDS011;19118;50.860;13.662;2024-02-26T01:02:18;36.25;;;20.05;;
32746;SDS011;19118;50.860;13.662;2024-02-26T01:07:19;37.47;;;19.77;;
32746;SDS011;19118;50.860;13.662;2024-02-26T01:12:19;37.80;;;19.30;;
32746;SDS011;19118;50.860;13.662;2024-02-26T01:17:19;41.30;;;19.13;;
32746;SDS011;19118;50.860;13.662;2024-02-26T01:22:20;40.35;;;20.52;;
32746;SDS011;19118;50.860;13.662;2024-02-26T01:27:20;41.95;;;21.75;;
32746;SDS011;19118;50.860;13.662;2024-02-26T01:32:20;44.27;;;21.87;;
32746;SDS011;19118;50.860;13.662;2024-02-26T01:37:21;45.80;;;19.00;;
32746;SDS011;19118;50.860;13.662;2024-02-26T01:42:21;39.05;;;18.95;;
32746;SDS011;19118;50.860;13.662;2024-02-26T01:47:21;37.85;;;19.42;;
32746;SDS011;19118;50.860;13.662;2024-02-26T01:52:22;37.45;;;20.10;;
32746;SDS011;19118;50.860;13.662;2024-02-26T01:57:23;40.63;;;18.83;;
32746;SDS011;19118;50.860;13.662;2024-02-26T02:02:23;39.75;;;18.80;;
32746;SDS011;19118;50.860;13.662;2024-02-26T02:07:24;40.70;;;20.80;;
32746;SDS011;19118;50.860;13.662;2024-02-26T02:12:24;42.20;;;19.10;;
32746;SDS011;19118;50.860;13.662;2024-02-26T02:17:25;37.60;;;17.65;;
32746;SDS011;19118;50.860;13.662;2024-02-26T02:22:27;37.50;;;18.88;;
32746;SDS011;19118;50.860;13.662;2024-02-26T02:27:27;42.03;;;19.65;;
32746;SDS011;19118;50.860;13.662;2024-02-26T02:32:28;39.15;;;18.83;;
32746;SDS011;19118;50.860;13.662;2024-02-26T02:37:29;39.15;;;17.35;;
32746;SDS011;19118;50.860;13.662;2024-02-26T02:42:29;34.10;;;16.80;;
32746;SDS011;19118;50.860;13.662;2024-02-26T02:47:30;34.50;;;16.13;;
32746;SDS011;19118;50.860;13.662;2024-02-26T02:52:30;42.60;;;15.53;;
32746;SDS011;19118;50.860;13.662;2024-02-26T02:57:31;29.58;;;14.25;;
32746;SDS011;19118;50.860;13.662;2024-02-26T03:02:32;47.15;;;15.63;;
32746;SDS011;19118;50.860;13.662;2024-02-26T03:07:32;25.43;;;13.80;;
32746;SDS011;19118;50.860;13.662;2024-02-26T03:12:33;26.77;;;12.73;;
32746;SDS011;19118;50.860;13.662;2024-02-26T03:17:34;22.80;;;12.02;;
32746;SDS011;19118;50.860;13.662;2024-02-26T03:22:34;25.83;;;12.95;;
32746;SDS011;19118;50.860;13.662;2024-02-26T03:27:35;30.38;;;13.10;;
32746;SDS011;19118;50.860;13.662;2024-02-26T03:32:35;33.30;;;13.47;;
32746;SDS011;19118;50.860;13.662;2024-02-26T03:37:35;24.67;;;11.33;;
32746;SDS011;19118;50.860;13.662;2024-02-26T03:42:36;27.35;;;12.13;;
32746;SDS011;19118;50.860;13.662;2024-02-26T03:47:37;21.20;;;11.47;;
32746;SDS011;19118;50.860;13.662;2024-02-26T03:52:38;24.52;;;11.43;;
32746;SDS011;19118;50.860;13.662;2024-02-26T03:57:39;26.13;;;11.63;;
32746;SDS011;19118;50.860;13.662;2024-02-26T04:02:39;24.48;;;10.43;;
32746;SDS011;19118;50.860;13.662;2024-02-26T04:07:39;27.40;;;12.57;;
32746;SDS011;19118;50.860;13.662;2024-02-26T04:12:41;28.13;;;13.45;;
32746;SDS011;19118;50.860;13.662;2024-02-26T04:17:42;38.67;;;14.15;;
32746;SDS011;19118;50.860;13.662;2024-02-26T04:22:42;24.42;;;13.75;;
32746;SDS011;19118;50.860;13.662;2024-02-26T04:27:43;35.65;;;14.82;;
32746;SDS011;19118;50.860;13.662;2024-02-26T04:32:43;31.88;;;13.60;;
32746;SDS011;19118;50.860;13.662;2024-02-26T04:37:43;28.63;;;13.83;;
32746;SDS011;19118;50.860;13.662;2024-02-26T04:42:44;31.77;;;13.75;;
32746;SDS011;19118;50.860;13.662;2024-02-26T04:47:44;28.75;;;14.65;;
32746;SDS011;19118;50.860;13.662;2024-02-26T04:52:44;32.08;;;15.77;;
32746;SDS011;19118;50.860;13.662;2024-02-26T04:57:45;36.28;;;16.27;;
32746;SDS011;19118;50.860;13.662;2024-02-26T05:02:45;37.30;;;17.67;;
32746;SDS011;19118;50.860;13.662;2024-02-26T05:07:46;45.65;;;18.63;;
32746;SDS011;19118;50.860;13.662;2024-02-26T05:12:46;48.73;;;22.73;;
32746;SDS011;19118;50.860;13.662;2024-02-26T05:17:46;49.75;;;23.02;;
32746;SDS011;19118;50.860;13.662;2024-02-26T05:22:47;47.03;;;24.73;;
32746;SDS011;19118;50.860;13.662;2024-02-26T05:27:48;63.33;;;26.45;;
32746;SDS011;19118;50.860;13.662;2024-02-26T05:32:48;61.20;;;24.17;;
32746;SDS011;19118;50.860;13.662;2024-02-26T05:37:48;52.92;;;24.73;;
32746;SDS011;19118;50.860;13.662;2024-02-26T05:42:49;48.47;;;23.90;;
32746;SDS011;19118;50.860;13.662;2024-02-26T05:47:49;47.97;;;21.90;;
32746;SDS011;19118;50.860;13.662;2024-02-26T05:52:50;48.35;;;21.88;;
32746;SDS011;19118;50.860;13.662;2024-02-26T05:57:50;44.10;;;21.73;;
32746;SDS011;19118;50.860;13.662;2024-02-26T06:02:50;53.97;;;22.80;;
32746;SDS011;19118;50.860;13.662;2024-02-26T06:07:50;53.87;;;21.17;;
32746;SDS011;19118;50.860;13.662;2024-02-26T06:12:51;55.00;;;22.57;;
32746;SDS011;19118;50.860;13.662;2024-02-26T06:17:51;60.38;;;22.08;;
32746;SDS011;19118;50.860;13.662;2024-02-26T06:22:51;45.08;;;21.90;;
32746;SDS011;19118;50.860;13.662;2024-02-26T06:27:52;50.83;;;20.92;;
32746;SDS011;19118;50.860;13.662;2024-02-26T06:32:52;44.05;;;20.30;;
32746;SDS011;19118;50.860;13.662;2024-02-26T06:37:53;43.43;;;19.67;;
32746;SDS011;19118;50.860;13.662;2024-02-26T06:42:53;54.28;;;22.70;;
32746;SDS011;19118;50.860;13.662;2024-02-26T06:47:53;39.88;;;18.90;;
32746;SDS011;19118;50.860;13.662;2024-02-26T06:52:55;47.58;;;19.85;;
32746;SDS011;19118;50.860;13.662;2024-02-26T06:57:56;53.55;;;19.38;;
32746;SDS011;19118;50.860;13.662;2024-02-26T07:02:56;49.33;;;20.50;;
32746;SDS011;19118;50.860;13.662;2024-02-26T07:07:56;39.70;;;15.65;;
32746;SDS011;19118;50.860;13.662;2024-02-26T07:12:57;36.23;;;17.50;;
32746;SDS011;19118;50.860;13.662;2024-02-26T07:17:57;36.77;;;16.97;;
32746;SDS011;19118;50.860;13.662;2024-02-26T07:23:02;33.97;;;16.42;;
32746;SDS011;19118;50.860;13.662;2024-02-26T07:28:03;33.08;;;14.65;;
32746;SDS011;19118;50.860;13.662;2024-02-26T07:33:04;38.90;;;14.80;;
32746;SDS011;19118;50.860;13.662;2024-02-26T07:38:04;28.98;;;15.23;;
32746;SDS011;19118;50.860;13.662;2024-02-26T07:43:05;29.70;;;16.60;;
32746;SDS011;19118;50.860;13.662;2024-02-26T07:48:05;25.70;;;14.47;;
32746;SDS011;19118;50.860;13.662;2024-02-26T07:53:06;25.75;;;13.40;;
32746;SDS011;19118;50.860;13.662;2024-02-26T07:58:06;26.60;;;13.82;;
32746;SDS011;19118;50.860;13.662;2024-02-26T08:03:07;25.97;;;11.50;;
32746;SDS011;19118;50.860;13.662;2024-02-26T08:08:08;25.85;;;11.98;;
32746;SDS011;19118;50.860;13.662;2024-02-26T08:13:08;18.52;;;10.15;;
32746;SDS011;19118;50.860;13.662;2024-02-26T08:18:09;21.45;;;10.98;;
32746;SDS011;19118;50.860;13.662;2024-02-26T08:23:09;21.13;;;11.60;;
32746;SDS011;19118;50.860;13.662;2024-02-26T08:28:09;19.90;;;11.43;;
32746;SDS011;19118;50.860;13.662;2024-02-26T08:33:13;25.05;;;10.63;;
32746;SDS011;19118;50.860;13.662;2024-02-26T08:38:13;21.40;;;10.18;;
32746;SDS011;19118;50.860;13.662;2024-02-26T08:43:14;22.05;;;10.25;;
32746;SDS011;19118;50.860;13.662;2024-02-26T08:48:14;19.20;;;10.93;;
32746;SDS011;19118;50.860;13.662;2024-02-26T08:53:15;21.75;;;10.05;;
32746;SDS011;19118;50.860;13.662;2024-02-26T08:58:16;20.40;;;11.32;;
32746;SDS011;19118;50.860;13.662;2024-02-26T09:03:17;19.87;;;9.73;;
32746;SDS011;19118;50.860;13.662;2024-02-26T09:08:20;21.50;;;11.00;;
32746;SDS011;19118;50.860;13.662;2024-02-26T09:13:22;20.58;;;10.48;;
32746;SDS011;19118;50.860;13.662;2024-02-26T09:18:23;21.55;;;11.70;;
32746;SDS011;19118;50.860;13.662;2024-02-26T09:23:23;26.40;;;11.27;;
32746;SDS011;19118;50.860;13.662;2024-02-26T09:28:24;23.02;;;11.70;;
32746;SDS011;19118;50.860;13.662;2024-02-26T09:33:24;20.97;;;11.00;;
32746;SDS011;19118;50.860;13.662;2024-02-26T09:38:24;20.55;;;9.27;;
32746;SDS011;19118;50.860;13.662;2024-02-26T09:43:25;16.83;;;10.53;;
32746;SDS011;19118;50.860;13.662;2024-02-26T09:48:30;18.90;;;11.10;;
32746;SDS011;19118;50.860;13.662;2024-02-26T09:53:32;17.63;;;8.77;;
32746;SDS011;19118;50.860;13.662;2024-02-26T09:58:33;18.25;;;9.95;;
32746;SDS011;19118;50.860;13.662;2024-02-26T10:03:34;15.27;;;9.50;;
32746;SDS011;19118;50.860;13.662;2024-02-26T10:08:40;21.33;;;10.27;;
32746;SDS011;19118;50.860;13.662;2024-02-26T10:13:41;15.65;;;9.23;;
32746;SDS011;19118;50.860;13.662;2024-02-26T10:18:48;19.87;;;10.47;;
32746;SDS011;19118;50.860;13.662;2024-02-26T10:23:49;19.50;;;10.73;;
32746;SDS011;19118;50.860;13.662;2024-02-26T10:28:50;20.23;;;10.70;;
32746;SDS011;19118;50.860;13.662;2024-02-26T10:33:51;16.67;;;9.63;;
32746;SDS011;19118;50.860;13.662;2024-02-26T10:38:55;16.67;;;11.07;;
32746;SDS011;19118;50.860;13.662;2024-02-26T10:43:56;20.80;;;11.00;;
32746;SDS011;19118;50.860;13.662;2024-02-26T10:48:56;18.13;;;10.50;;
32746;SDS011;19118;50.860;13.662;2024-02-26T10:53:57;20.97;;;10.80;;
32746;SDS011;19118;50.860;13.662;2024-02-26T10:59:00;17.92;;;9.85;;
32746;SDS011;19118;50.860;13.662;2024-02-26T11:04:01;16.80;;;9.23;;
32746;SDS011;19118;50.860;13.662;2024-02-26T11:09:02;18.45;;;9.82;;
32746;SDS011;19118;50.860;13.662;2024-02-26T11:14:03;18.52;;;9.52;;
32746;SDS011;19118;50.860;13.662;2024-02-26T11:19:04;18.13;;;9.40;;
32746;SDS011;19118;50.860;13.662;2024-02-26T11:24:10;18.95;;;11.13;;
32746;SDS011;19118;50.860;13.662;2024-02-26T11:29:14;19.35;;;11.02;;
32746;SDS011;19118;50.860;13.662;2024-02-26T11:34:20;15.23;;;9.90;;
32746;SDS011;19118;50.860;13.662;2024-02-26T11:39:21;16.58;;;9.50;;
32746;SDS011;19118;50.860;13.662;2024-02-26T11:44:28;28.92;;;14.93;;
32746;SDS011;19118;50.860;13.662;2024-02-26T11:49:30;15.40;;;9.90;;
32746;SDS011;19118;50.860;13.662;2024-02-26T11:59:55;20.65;;;10.73;;
32746;SDS011;19118;50.860;13.662;2024-02-26T12:04:56;19.27;;;11.10;;
32746;SDS011;19118;50.860;13.662;2024-02-26T12:10:13;19.38;;;11.00;;
32746;SDS011;19118;50.860;13.662;2024-02-26T12:15:15;18.98;;;10.45;;
32746;SDS011;19118;50.860;13.662;2024-02-26T12:20:17;19.98;;;11.25;;
32746;SDS011;19118;50.860;13.662;2024-02-26T12:25:20;15.75;;;9.32;;
32746;SDS011;19118;50.860;13.662;2024-02-26T12:30:23;17.27;;;10.57;;
32746;SDS011;19118;50.860;13.662;2024-02-26T12:35:25;17.92;;;10.50;;
32746;SDS011;19118;50.860;13.662;2024-02-26T12:40:26;15.50;;;9.82;;
32746;SDS011;19118;50.860;13.662;2024-02-26T12:45:28;18.35;;;10.38;;
32746;SDS011;19118;50.860;13.662;2024-02-26T12:50:28;15.18;;;8.93;;
32746;SDS011;19118;50.860;13.662;2024-02-26T12:55:29;18.02;;;11.02;;
32746;SDS011;19118;50.860;13.662;2024-02-26T13:00:31;18.33;;;9.55;;
32746;SDS011;19118;50.860;13.662;2024-02-26T13:05:31;18.33;;;10.88;;
32746;SDS011;19118;50.860;13.662;2024-02-26T13:10:33;19.38;;;11.10;;
32746;SDS011;19118;50.860;13.662;2024-02-26T13:15:34;22.00;;;10.95;;
32746;SDS011;19118;50.860;13.662;2024-02-26T13:20:34;24.53;;;10.03;;
32746;SDS011;19118;50.860;13.662;2024-02-26T13:25:36;17.15;;;9.32;;
32746;SDS011;19118;50.860;13.662;2024-02-26T13:30:39;14.52;;;8.38;;
32746;SDS011;19118;50.860;13.662;2024-02-26T13:35:39;15.07;;;8.05;;
32746;SDS011;19118;50.860;13.662;2024-02-26T13:40:40;14.57;;;7.93;;
32746;SDS011;19118;50.860;13.662;2024-02-26T13:45:40;17.42;;;7.88;;
32746;SDS011;19118;50.860;13.662;2024-02-26T13:50:42;13.27;;;7.75;;
32746;SDS011;19118;50.860;13.662;2024-02-26T13:55:45;19.77;;;7.55;;
32746;SDS011;19118;50.860;13.662;2024-02-26T14:00:46;16.03;;;7.93;;
32746;SDS011;19118;50.860;13.662;2024-02-26T14:05:47;15.95;;;8.40;;
32746;SDS011;19118;50.860;13.662;2024-02-26T14:10:47;13.25;;;8.07;;
32746;SDS011;19118;50.860;13.662;2024-02-26T14:15:48;17.13;;;8.43;;
32746;SDS011;19118;50.860;13.662;2024-02-26T14:20:49;20.40;;;11.80;;
32746;SDS011;19118;50.860;13.662;2024-02-26T14:25:49;18.30;;;8.37;;
32746;SDS011;19118;50.860;13.662;2024-02-26T14:30:49;12.27;;;7.90;;
32746;SDS011;19118;50.860;13.662;2024-02-26T14:35:49;13.70;;;8.30;;
32746;SDS011;19118;50.860;13.662;2024-02-26T14:40:50;15.40;;;8.33;;
32746;SDS011;19118;50.860;13.662;2024-02-26T14:45:50;18.55;;;8.52;;
32746;SDS011;19118;50.860;13.662;2024-02-26T14:50:50;15.23;;;8.90;;
32746;SDS011;19118;50.860;13.662;2024-02-26T14:55:51;12.73;;;7.57;;
32746;SDS011;19118;50.860;13.662;2024-02-26T15:00:51;15.07;;;8.50;;
32746;SDS011;19118;50.860;13.662;2024-02-26T15:05:52;12.65;;;8.45;;
32746;SDS011;19118;50.860;13.662;2024-02-26T15:10:52;15.38;;;8.65;;
32746;SDS011;19118;50.860;13.662;2024-02-26T15:15:53;19.17;;;9.53;;
32746;SDS011;19118;50.860;13.662;2024-02-26T15:20:53;15.13;;;8.03;;
32746;SDS011;19118;50.860;13.662;2024-02-26T15:25:54;15.05;;;8.30;;
32746;SDS011;19118;50.860;13.662;2024-02-26T15:30:54;16.05;;;7.82;;
32746;SDS011;19118;50.860;13.662;2024-02-26T15:35:54;18.98;;;8.50;;
32746;SDS011;19118;50.860;13.662;2024-02-26T15:40:55;13.77;;;7.25;;
32746;SDS011;19118;50.860;13.662;2024-02-26T15:45:55;14.13;;;7.17;;
32746;SDS011;19118;50.860;13.662;2024-02-26T15:50:55;14.40;;;8.27;;
32746;SDS011;19118;50.860;13.662;2024-02-26T15:55:56;14.65;;;8.70;;
32746;SDS011;19118;50.860;13.662;2024-02-26T16:00:56;22.25;;;9.82;;
32746;SDS011;19118;50.860;13.662;2024-02-26T16:05:56;16.07;;;8.70;;
32746;SDS011;19118;50.860;13.662;2024-02-26T16:10:57;11.70;;;7.20;;
32746;SDS011;19118;50.860;13.662;2024-02-26T16:16:00;12.33;;;8.00;;
32746;SDS011;19118;50.860;13.662;2024-02-26T16:21:03;15.82;;;8.25;;
32746;SDS011;19118;50.860;13.662;2024-02-26T16:26:03;14.48;;;7.90;;
32746;SDS011;19118;50.860;13.662;2024-02-26T16:31:04;12.32;;;7.70;;
32746;SDS011;19118;50.860;13.662;2024-02-26T16:36:05;13.77;;;8.13;;
32746;SDS011;19118;50.860;13.662;2024-02-26T16:41:05;15.13;;;8.38;;
32746;SDS011;19118;50.860;13.662;2024-02-26T16:46:05;18.58;;;8.75;;
32746;SDS011;19118;50.860;13.662;2024-02-26T16:51:06;19.97;;;9.93;;
32746;SDS011;19118;50.860;13.662;2024-02-26T16:56:09;22.90;;;12.50;;
32746;SDS011;19118;50.860;13.662;2024-02-26T17:01:09;17.30;;;9.32;;
32746;SDS011;19118;50.860;13.662;2024-02-26T17:06:10;16.10;;;8.50;;
32746;SDS011;19118;50.860;13.662;2024-02-26T17:11:10;14.60;;;9.53;;
32746;SDS011;19118;50.860;13.662;2024-02-26T17:16:10;18.53;;;9.17;;
32746;SDS011;19118;50.860;13.662;2024-02-26T17:21:12;23.85;;;10.38;;
32746;SDS011;19118;50.860;13.662;2024-02-26T17:26:20;20.00;;;9.73;;
32746;SDS011;19118;50.860;13.662;2024-02-26T17:31:21;16.02;;;9.30;;
32746;SDS011;19118;50.860;13.662;2024-02-26T17:36:21;19.00;;;10.60;;
32746;SDS011;19118;50.860;13.662;2024-02-26T17:41:22;19.35;;;10.73;;
32746;SDS011;19118;50.860;13.662;2024-02-26T17:46:22;18.13;;;10.00;;
32746;SDS011;19118;50.860;13.662;2024-02-26T17:51:23;16.63;;;9.32;;
32746;SDS011;19118;50.860;13.662;2024-02-26T17:56:23;18.60;;;9.60;;
32746;SDS011;19118;50.860;13.662;2024-02-26T18:01:23;17.90;;;9.60;;
32746;SDS011;19118;50.860;13.662;2024-02-26T18:06:24;18.10;;;9.30;;
32746;SDS011;19118;50.860;13.662;2024-02-26T18:11:24;18.13;;;9.53;;
32746;SDS011;19118;50.860;13.662;2024-02-26T18:16:24;14.15;;;8.98;;
32746;SDS011;19118;50.860;13.662;2024-02-26T18:21:25;22.40;;;11.52;;
32746;SDS011;19118;50.860;13.662;2024-02-26T18:26:26;16.13;;;10.80;;
32746;SDS011;19118;50.860;13.662;2024-02-26T18:31:27;23.38;;;12.18;;
32746;SDS011;19118;50.860;13.662;2024-02-26T18:36:28;21.63;;;10.48;;
32746;SDS011;19118;50.860;13.662;2024-02-26T18:41:28;20.27;;;11.80;;
32746;SDS011;19118;50.860;13.662;2024-02-26T18:46:29;21.90;;;12.67;;
32746;SDS011;19118;50.860;13.662;2024-02-26T18:51:29;22.50;;;11.47;;
32746;SDS011;19118;50.860;13.662;2024-02-26T18:56:29;22.50;;;12.33;;
32746;SDS011;19118;50.860;13.662;2024-02-26T19:01:30;27.25;;;14.05;;
32746;SDS011;19118;50.860;13.662;2024-02-26T19:06:32;21.38;;;13.15;;
32746;SDS011;19118;50.860;13.662;2024-02-26T19:11:35;22.45;;;13.45;;
32746;SDS011;19118;50.860;13.662;2024-02-26T19:16:36;23.47;;;11.40;;
32746;SDS011;19118;50.860;13.662;2024-02-26T19:21:36;30.38;;;17.42;;
32746;SDS011;19118;50.860;13.662;2024-02-26T19:26:39;28.02;;;15.55;;
32746;SDS011;19118;50.860;13.662;2024-02-26T19:31:40;24.83;;;13.07;;
32746;SDS011;19118;50.860;13.662;2024-02-26T19:36:40;23.52;;;12.40;;
32746;SDS011;19118;50.860;13.662;2024-02-26T19:41:40;21.23;;;11.55;;
32746;SDS011;19118;50.860;13.662;2024-02-26T19:46:41;22.27;;;12.17;;
32746;SDS011;19118;50.860;13.662;2024-02-26T19:51:41;22.10;;;11.63;;
32746;SDS011;19118;50.860;13.662;2024-02-26T19:56:42;21.48;;;10.63;;
32746;SDS011;19118;50.860;13.662;2024-02-26T20:01:43;24.08;;;12.43;;
32746;SDS011;19118;50.860;13.662;2024-02-26T20:06:44;31.02;;;11.18;;
32746;SDS011;19118;50.860;13.662;2024-02-26T20:11:44;24.38;;;12.05;;
32746;SDS011;19118;50.860;13.662;2024-02-26T20:16:45;24.05;;;11.10;;
32746;SDS011;19118;50.860;13.662;2024-02-26T20:21:45;25.83;;;12.18;;
32746;SDS011;19118;50.860;13.662;2024-02-26T20:26:45;20.27;;;11.15;;
32746;SDS011;19118;50.860;13.662;2024-02-26T20:31:49;24.00;;;10.98;;
32746;SDS011;19118;50.860;13.662;2024-02-26T20:36:49;23.27;;;10.55;;
32746;SDS011;19118;50.860;13.662;2024-02-26T20:41:50;20.00;;;10.77;;
32746;SDS011;19118;50.860;13.662;2024-02-26T20:46:50;24.33;;;12.40;;
32746;SDS011;19118;50.860;13.662;2024-02-26T20:51:55;21.27;;;11.15;;
32746;SDS011;19118;50.860;13.662;2024-02-26T20:56:55;24.60;;;12.23;;
32746;SDS011;19118;50.860;13.662;2024-02-26T21:01:57;29.73;;;13.63;;
32746;SDS011;19118;50.860;13.662;2024-02-26T21:06:57;27.95;;;13.00;;
32746;SDS011;19118;50.860;13.662;2024-02-26T21:11:57;25.52;;;12.50;;
32746;SDS011;19118;50.860;13.662;2024-02-26T21:16:58;18.30;;;10.82;;
32746;SDS011;19118;50.860;13.662;2024-02-26T21:21:58;23.67;;;11.87;;
32746;SDS011;19118;50.860;13.662;2024-02-26T21:26:58;19.60;;;11.05;;
32746;SDS011;19118;50.860;13.662;2024-02-26T21:31:59;18.50;;;9.97;;
32746;SDS011;19118;50.860;13.662;2024-02-26T21:36:59;23.42;;;12.50;;
32746;SDS011;19118;50.860;13.662;2024-02-26T21:42:00;26.33;;;12.50;;
32746;SDS011;19118;50.860;13.662;2024-02-26T21:47:00;22.37;;;12.93;;
32746;SDS011;19118;50.860;13.662;2024-02-26T21:52:02;16.98;;;10.80;;
32746;SDS011;19118;50.860;13.662;2024-02-26T21:57:03;29.52;;;13.65;;
32746;SDS011;19118;50.860;13.662;2024-02-26T22:02:03;21.20;;;12.05;;
32746;SDS011;19118;50.860;13.662;2024-02-26T22:07:04;21.40;;;12.47;;
32746;SDS011;19118;50.860;13.662;2024-02-26T22:12:05;24.98;;;13.93;;
32746;SDS011;19118;50.860;13.662;2024-02-26T22:17:05;33.03;;;14.10;;
32746;SDS011;19118;50.860;13.662;2024-02-26T22:22:06;24.77;;;12.83;;
32746;SDS011;19118;50.860;13.662;2024-02-26T22:27:06;27.50;;;14.40;;
32746;SDS011;19118;50.860;13.662;2024-02-26T22:32:06;21.83;;;12.43;;
32746;SDS011;19118;50.860;13.662;2024-02-26T22:37:07;32.50;;;12.33;;
32746;SDS011;19118;50.860;13.662;2024-02-26T22:42:07;21.10;;;11.68;;
32746;SDS011;19118;50.860;13.662;2024-02-26T22:47:07;27.80;;;11.60;;
32746;SDS011;19118;50.860;13.662;2024-02-26T22:52:08;23.10;;;11.67;;
32746;SDS011;19118;50.860;13.662;2024-02-26T22:57:08;26.02;;;12.57;;
32746;SDS011;19118;50.860;13.662;2024-02-26T23:02:08;25.03;;;11.67;;
32746;SDS011;19118;50.860;13.662;2024-02-26T23:07:09;19.40;;;12.43;;
32746;SDS011;19118;50.860;13.662;2024-02-26T23:12:09;23.70;;;13.37;;
32746;SDS011;19118;50.860;13.662;2024-02-26T23:17:09;21.37;;;13.00;;
32746;SDS011;19118;50.860;13.662;2024-02-26T23:22:10;26.05;;;13.93;;
32746;SDS011;19118;50.860;13.662;2024-02-26T23:27:10;24.10;;;14.18;;
32746;SDS011;19118;50.860;13.662;2024-02-26T23:32:10;26.20;;;14.10;;
32746;SDS011;19118;50.860;13.662;2024-02-26T23:37:11;25.60;;;13.07;;
32746;SDS011;19118;50.860;13.662;2024-02-26T23:42:11;30.30;;;16.27;;
32746;SDS011;19118;50.860;13.662;2024-02-26T23:47:11;27.88;;;14.60;;
32746;SDS011;19118;50.860;13.662;2024-02-26T23:52:12;28.40;;;14.13;;
32746;SDS011;19118;50.860;13.662;2024-02-26T23:57:12;24.05;;;14.32;;
